Time;durP1;ratioP1;P1;durP2;ratioP2;P2;SDS_P1;SDS_P2;PMS_P1;PMS_P2;Temp;Humidity;BMP_temperature;BMP_pressure;BME280_temperature;BME280_humidity;BME280_pressure;Samples;Min_cycle;Max_cycle;Signal;HPM_P1;HPM_P2
2022/08/08 00:01:35;;;;;;;6.18;3.70;;;;;;;14.40;100.00;101396.59;7690806;23;20027;-87
2022/08/08 00:05:07;;;;;;;4.30;3.67;;;;;;;14.40;100.00;101392.19;7691986;23;20613;-87
2022/08/08 00:08:28;;;;;;;4.20;3.22;;;;;;;14.39;100.00;101397.56;7664008;23;20027;-87
2022/08/08 00:11:47;;;;;;;;;;;;;;;14.36;100.00;101387.38;7693633;23;20451;-87
2022/08/08 00:15:15;;;;;;;9.40;3.65;;;;;;;14.30;100.00;101401.72;7701547;23;19927;-87
2022/08/08 00:18:49;;;;;;;4.50;3.40;;;;;;;14.23;100.00;101395.34;7700969;23;20040;-87
2022/08/08 00:22:03;;;;;;;5.35;3.80;;;;;;;14.16;100.00;101388.97;7700862;23;20522;-87
2022/08/08 00:25:15;;;;;;;4.15;3.40;;;;;;;14.13;100.00;101399.63;7701487;23;20028;-87
2022/08/08 00:28:24;;;;;;;3.70;3.30;;;;;;;14.06;100.00;101391.50;7701343;23;20451;-87
2022/08/08 00:31:48;;;;;;;4.75;3.65;;;;;;;14.01;100.00;101396.22;7701089;23;20040;-87
2022/08/08 00:35:31;;;;;;;4.07;3.30;;;;;;;14.00;100.00;101399.81;7674921;23;20518;-87
2022/08/08 00:39:10;;;;;;;5.68;3.85;;;;;;;13.97;100.00;101398.25;7701656;23;20020;-87
2022/08/08 00:43:04;;;;;;;5.75;3.83;;;;;;;13.96;100.00;101387.97;7679057;23;20027;-87
2022/08/08 00:46:39;;;;;;;6.43;3.90;;;;;;;13.94;100.00;101389.88;7528017;23;20027;-87
2022/08/08 00:50:42;;;;;;;5.45;4.13;;;;;;;13.93;100.00;101389.03;7548142;23;20125;-87
2022/08/08 00:54:01;;;;;;;5.30;3.80;;;;;;;13.92;100.00;101391.78;7490110;23;20043;-87
2022/08/08 00:58:15;;;;;;;5.00;3.42;;;;;;;13.96;100.00;101388.81;7513959;23;20027;-87
2022/08/08 01:01:33;;;;;;;5.35;4.18;;;;;;;13.94;100.00;101392.50;7529439;23;20030;-87
2022/08/08 01:05:39;;;;;;;6.85;4.28;;;;;;;13.87;100.00;101388.72;7564419;23;20030;-87
2022/08/08 01:09:22;;;;;;;4.72;3.72;;;;;;;13.82;100.00;101386.47;7442728;23;20366;-87
2022/08/08 01:12:53;;;;;;;6.10;4.15;;;;;;;13.80;100.00;101390.97;7442915;23;20090;-87
2022/08/08 01:16:03;;;;;;;4.60;3.75;;;;;;;13.77;100.00;101397.25;7419651;23;20146;-87
2022/08/08 01:19:40;;;;;;;6.10;4.30;;;;;;;13.74;100.00;101394.06;7442790;23;20184;-87
2022/08/08 01:23:21;;;;;;;5.03;3.95;;;;;;;13.71;100.00;101392.53;7440496;23;20043;-87
2022/08/08 01:26:55;;;;;;;5.22;4.10;;;;;;;13.70;100.00;101393.47;7443071;23;20072;-87
2022/08/08 01:30:34;;;;;;;4.18;3.63;;;;;;;13.68;100.00;101392.75;7457084;23;20027;-87
2022/08/08 01:34:15;;;;;;;6.93;4.30;;;;;;;13.60;100.00;101400.34;7454093;23;20034;-87
2022/08/08 01:37:59;;;;;;;5.82;4.35;;;;;;;13.56;100.00;101397.16;7453935;23;20471;-87
2022/08/08 01:41:30;;;;;;;4.80;4.13;;;;;;;13.58;100.00;101391.81;7674095;23;20071;-87
2022/08/08 01:44:51;;;;;;;6.50;4.45;;;;;;;13.61;100.00;101398.56;7701542;23;20372;-87
2022/08/08 01:48:18;;;;;;;6.63;4.53;;;;;;;13.57;100.00;101392.78;7673178;23;20028;-87
2022/08/08 01:51:57;;;;;;;7.25;4.60;;;;;;;13.51;100.00;101393.22;7671245;23;20028;-87
2022/08/08 01:55:48;;;;;;;5.50;4.38;;;;;;;13.48;100.00;101399.50;7673020;23;20025;-87
2022/08/08 01:59:38;;;;;;;5.53;3.87;;;;;;;13.43;100.00;101396.44;7673622;23;20497;-87
2022/08/08 02:03:14;;;;;;;5.55;3.95;;;;;;;13.40;100.00;101396.66;7699559;23;20035;-87
2022/08/08 02:07:01;;;;;;;7.10;4.13;;;;;;;13.42;100.00;101384.38;7678111;23;20028;-87
2022/08/08 02:10:52;;;;;;;6.20;4.22;;;;;;;13.38;100.00;101395.13;7673497;23;20091;-87
2022/08/08 02:14:04;;;;;;;6.45;4.05;;;;;;;13.37;100.00;101390.88;7649835;23;20190;-87
2022/08/08 02:17:33;;;;;;;7.10;4.32;;;;;;;13.33;100.00;101391.09;7672247;23;20029;-86
2022/08/08 02:24:37;;;;;;;4.60;3.70;;;;;;;13.33;100.00;101401.50;7700376;23;20451;-87
2022/08/08 02:28:04;;;;;;;6.97;4.47;;;;;;;13.35;100.00;101404.00;7672027;23;20321;-87
2022/08/08 02:31:21;;;;;;;4.22;3.70;;;;;;;13.36;100.00;101405.63;7671583;23;20020;-87
2022/08/08 02:35:21;;;;;;;6.75;4.50;;;;;;;13.34;100.00;101410.13;7672837;23;20122;-87
2022/08/08 02:38:32;;;;;;;5.40;3.72;;;;;;;13.30;100.00;101406.13;7524075;23;20050;-87
2022/08/08 02:41:59;;;;;;;5.07;4.05;;;;;;;13.29;100.00;101405.31;7524335;23;20444;-87
2022/08/08 02:45:25;;;;;;;7.75;4.65;;;;;;;13.26;100.00;101407.25;7548603;23;20114;-87
2022/08/08 02:48:56;;;;;;;6.03;4.10;;;;;;;13.25;100.00;101413.41;7524705;23;20042;-87
2022/08/08 02:52:28;;;;;;;7.82;4.65;;;;;;;13.24;100.00;101401.34;7524192;23;20070;-87
2022/08/08 02:56:08;;;;;;;7.55;5.00;;;;;;;13.18;100.00;101409.63;7523532;23;20026;-87
2022/08/08 02:59:42;;;;;;;5.85;4.60;;;;;;;13.14;100.00;101412.47;7523571;23;20026;-87
2022/08/08 03:03:37;;;;;;;7.72;4.50;;;;;;;13.08;100.00;101412.91;7549342;23;20640;-87
2022/08/08 03:07:23;;;;;;;5.20;4.35;;;;;;;12.97;100.00;101409.44;7522893;23;20085;-87
2022/08/08 03:10:58;;;;;;;5.72;4.38;;;;;;;12.88;100.00;101404.00;7547545;23;20503;-87
2022/08/08 03:14:18;;;;;;;4.07;3.58;;;;;;;12.84;100.00;101409.53;7598144;23;20097;-87
2022/08/08 03:18:17;;;;;;;7.05;4.55;;;;;;;12.70;100.00;101408.00;7700280;23;20021;-86
2022/08/08 03:21:33;;;;;;;7.97;5.03;;;;;;;12.62;100.00;101403.34;7672099;23;20032;-87
2022/08/08 03:24:55;;;;;;;6.93;4.68;;;;;;;12.57;100.00;101402.88;7700233;23;20017;-86
2022/08/08 03:28:01;;;;;;;6.22;4.50;;;;;;;12.52;100.00;101401.53;7672682;23;20411;-87
2022/08/08 03:34:39;;;;;;;7.65;4.78;;;;;;;12.42;100.00;101403.97;7672703;23;20480;-86
2022/08/08 03:37:45;;;;;;;8.20;5.20;;;;;;;12.39;100.00;101401.59;7673188;23;20473;-86
2022/08/08 03:41:08;;;;;;;7.78;5.10;;;;;;;12.39;100.00;101409.38;7677108;23;20025;-86
2022/08/08 03:44:33;;;;;;;7.32;5.18;;;;;;;12.35;100.00;101415.75;7701109;23;20424;-86
2022/08/08 03:47:39;;;;;;;6.07;4.70;;;;;;;12.38;100.00;101418.13;7675174;23;20093;-87
2022/08/08 03:50:49;;;;;;;6.13;4.55;;;;;;;12.32;100.00;101421.97;7675500;23;20441;-86
2022/08/08 03:53:54;;;;;;;7.35;5.22;;;;;;;12.31;100.00;101427.28;7651107;23;20218;-86
2022/08/08 03:56:58;;;;;;;6.97;5.28;;;;;;;12.33;100.00;101422.81;7675631;23;20032;-87
2022/08/08 04:00:25;;;;;;;7.93;4.97;;;;;;;12.35;100.00;101431.34;7700458;23;20013;-87
2022/08/08 04:03:35;;;;;;;6.60;5.05;;;;;;;12.39;100.00;101428.38;7676345;23;20371;-87
2022/08/08 04:06:58;;;;;;;9.90;5.40;;;;;;;12.43;100.00;101431.59;7675114;23;20075;-87
2022/08/08 04:10:11;;;;;;;7.57;5.32;;;;;;;12.48;100.00;101432.91;7674751;23;20437;-87
2022/08/08 04:13:13;;;;;;;6.32;5.00;;;;;;;12.48;100.00;101439.88;7650159;23;20051;-86
2022/08/08 04:16:25;;;;;;;7.25;4.70;;;;;;;12.50;100.00;101446.63;7674264;23;20206;-87
2022/08/08 04:19:43;;;;;;;6.75;4.93;;;;;;;12.54;100.00;101452.41;7701166;23;20020;-87
2022/08/08 04:22:47;;;;;;;7.75;5.13;;;;;;;12.55;100.00;101446.28;7700674;23;20028;-87
2022/08/08 04:25:53;;;;;;;7.93;5.00;;;;;;;12.55;100.00;101453.28;7674718;23;20327;-87
2022/08/08 04:28:56;;;;;;;6.90;5.35;;;;;;;12.55;100.00;101459.28;7674311;23;20467;-87
2022/08/08 04:31:59;;;;;;;7.47;5.20;;;;;;;12.54;100.00;101447.22;7674461;23;20032;-86
2022/08/08 04:35:05;;;;;;;6.65;4.90;;;;;;;12.56;100.00;101452.31;7700834;23;20028;-87
2022/08/08 04:38:16;;;;;;;7.43;5.05;;;;;;;12.63;100.00;101456.13;7674496;23;20028;-87
2022/08/08 04:41:24;;;;;;;6.22;4.80;;;;;;;12.63;100.00;101458.72;7650180;23;20388;-87
2022/08/08 04:44:37;;;;;;;7.35;5.20;;;;;;;12.67;100.00;101454.94;7701796;23;20020;-86
2022/08/08 04:47:40;;;;;;;7.35;4.90;;;;;;;12.69;100.00;101458.25;7701281;23;20027;-87
2022/08/08 04:50:49;;;;;;;6.43;4.88;;;;;;;12.69;100.00;101458.25;7674690;23;20395;-87
2022/08/08 04:53:56;;;;;;;7.00;4.90;;;;;;;12.68;100.00;101452.25;7674893;23;20490;-87
2022/08/08 04:57:19;;;;;;;11.05;6.03;;;;;;;12.70;100.00;101455.56;7702261;23;20039;-87
2022/08/08 05:00:24;;;;;;;5.93;4.45;;;;;;;12.75;100.00;101459.59;7674532;23;20083;-87
2022/08/08 05:03:27;;;;;;;7.05;5.10;;;;;;;12.77;100.00;101457.69;7674238;23;20051;-87
2022/08/08 05:06:49;;;;;;;8.13;5.20;;;;;;;12.79;100.00;101459.25;7674215;23;20348;-87
2022/08/08 05:09:56;;;;;;;7.50;5.65;;;;;;;12.87;100.00;101463.91;7673814;23;20471;-87
2022/08/08 05:13:01;;;;;;;7.72;5.60;;;;;;;12.91;100.00;101460.13;7649234;23;20024;-87
2022/08/08 05:16:09;;;;;;;8.27;5.25;;;;;;;12.91;100.00;101460.94;7701492;23;20476;-86
2022/08/08 05:19:32;;;;;;;9.02;5.70;;;;;;;12.96;100.00;101454.59;7673566;23;20028;-87
2022/08/08 05:23:00;;;;;;;6.70;5.57;;;;;;;12.99;100.00;101462.97;7673616;23;20036;-87
2022/08/08 05:26:05;;;;;;;8.40;5.85;;;;;;;13.00;100.00;101461.22;7650741;23;20078;-87
2022/08/08 05:29:07;;;;;;;10.57;5.55;;;;;;;13.05;100.00;101464.31;7674551;23;20029;-87
2022/08/08 05:32:12;;;;;;;9.27;5.68;;;;;;;13.10;100.00;101464.78;7673504;23;20020;-87
2022/08/08 05:35:20;;;;;;;6.82;5.10;;;;;;;13.09;100.00;101461.38;7700156;23;20023;-86
2022/08/08 05:38:28;;;;;;;9.25;5.72;;;;;;;13.19;100.00;101461.53;7674200;23;20029;-87
2022/08/08 05:41:44;;;;;;;7.13;5.38;;;;;;;13.23;100.00;101451.69;7674204;23;20020;-87
2022/08/08 05:45:01;;;;;;;10.27;5.95;;;;;;;13.27;100.00;101459.19;7673299;23;20020;-87
2022/08/08 05:48:23;;;;;;;9.90;5.95;;;;;;;13.32;100.00;101474.44;7673497;23;20030;-87
2022/08/08 05:51:30;;;;;;;8.95;5.68;;;;;;;13.37;100.00;101474.09;7700038;23;20024;-87
2022/08/08 05:54:53;;;;;;;8.68;5.90;;;;;;;13.44;100.00;101472.66;7673614;23;20825;-87
2022/08/08 05:58:05;;;;;;;7.97;6.05;;;;;;;13.51;100.00;101469.47;7700446;23;20020;-87
2022/08/08 06:01:21;;;;;;;9.30;6.13;;;;;;;13.57;100.00;101471.63;7673587;23;20033;-87
2022/08/08 06:04:45;;;;;;;7.57;5.80;;;;;;;13.66;100.00;101477.06;7673312;23;20028;-87
2022/08/08 06:07:57;;;;;;;7.10;5.85;;;;;;;13.71;100.00;101472.34;7673631;23;20033;-87
2022/08/08 06:11:05;;;;;;;6.13;4.88;;;;;;;13.76;100.00;101480.63;7699663;23;20024;-87
2022/08/08 06:14:10;;;;;;;9.60;5.40;;;;;;;13.85;100.00;101485.13;7649707;23;20110;-87
2022/08/08 06:17:20;;;;;;;9.70;6.13;;;;;;;13.87;100.00;101488.44;7650501;23;20479;-87
2022/08/08 06:20:44;;;;;;;7.20;5.45;;;;;;;13.97;100.00;101478.97;7672423;23;20083;-87
2022/08/08 06:23:51;;;;;;;7.50;5.47;;;;;;;14.00;100.00;101486.53;7671896;23;20458;-87
2022/08/08 06:27:08;;;;;;;7.78;5.22;;;;;;;14.06;100.00;101487.84;7650839;23;20051;-87
2022/08/08 06:30:15;;;;;;;8.98;5.75;;;;;;;14.10;100.00;101484.03;7673003;23;20031;-87
2022/08/08 06:33:39;;;;;;;7.28;5.75;;;;;;;14.19;100.00;101493.72;7700891;23;20071;-87
2022/08/08 06:37:08;;;;;;;7.95;5.95;;;;;;;14.26;100.00;101499.28;7674248;23;20032;-87
2022/08/08 06:40:32;;;;;;;8.88;5.43;;;;;;;14.31;100.00;101498.91;7672759;23;20359;-87
2022/08/08 06:43:46;;;;;;;9.73;5.40;;;;;;;14.42;100.00;101504.09;7674120;23;20171;-87
2022/08/08 06:47:03;;;;;;;8.13;4.90;;;;;;;14.64;100.00;101505.84;7673747;23;20034;-87
2022/08/08 06:50:09;;;;;;;6.93;5.05;;;;;;;14.67;100.00;101507.38;7672290;23;20415;-87
2022/08/08 06:53:19;;;;;;;8.60;5.28;;;;;;;14.79;100.00;101516.81;7673305;23;20312;-87
2022/08/08 06:56:29;;;;;;;7.43;5.43;;;;;;;14.85;100.00;101511.91;7699825;23;20026;-87
2022/08/08 06:59:33;;;;;;;7.22;5.25;;;;;;;14.96;100.00;101515.47;7672976;23;20460;-87
2022/08/08 07:02:59;;;;;;;8.68;5.30;;;;;;;14.99;100.00;101520.41;7652198;23;20037;-87
2022/08/08 07:06:09;;;;;;;7.65;5.43;;;;;;;15.12;100.00;101518.44;7672847;23;20474;-87
2022/08/08 07:09:17;;;;;;;5.13;4.40;;;;;;;15.24;100.00;101517.44;7673478;23;20020;-87
2022/08/08 07:12:31;;;;;;;8.05;5.03;;;;;;;15.37;99.58;101524.25;7672716;23;20047;-87
2022/08/08 07:15:39;;;;;;;6.65;4.95;;;;;;;15.46;98.39;101532.13;7671955;23;20036;-87
2022/08/08 07:19:30;;;;;;;5.65;4.70;;;;;;;15.54;97.55;101528.88;7671949;23;20028;-87
2022/08/08 07:23:01;;;;;;;6.90;5.05;;;;;;;15.65;95.73;101527.97;7700382;23;20021;-87
2022/08/08 07:26:09;;;;;;;9.52;5.80;;;;;;;15.76;96.66;101532.31;7525221;23;20034;-87
2022/08/08 07:29:13;;;;;;;5.65;4.45;;;;;;;15.94;94.67;101534.19;7524143;23;20030;-87
2022/08/08 07:32:36;;;;;;;9.90;4.90;;;;;;;16.03;94.72;101535.19;7525911;23;20453;-86
2022/08/08 07:35:41;;;;;;;5.78;4.50;;;;;;;16.11;93.07;101531.91;7525416;23;20563;-87
2022/08/08 07:38:47;;;;;;;7.43;4.40;;;;;;;16.11;92.35;101540.56;7550358;23;20026;-87
2022/08/08 07:41:54;;;;;;;6.95;4.50;;;;;;;16.18;92.11;101537.44;7528376;23;20022;-87
2022/08/08 07:45:07;;;;;;;6.53;4.55;;;;;;;16.27;91.26;101534.00;7526289;23;20029;-87
2022/08/08 07:48:13;;;;;;;5.28;4.10;;;;;;;16.33;90.78;101541.34;7527338;23;20037;-87
2022/08/08 07:51:17;;;;;;;5.65;4.55;;;;;;;16.45;89.80;101542.06;7502599;23;20031;-87
2022/08/08 07:55:18;;;;;;;6.63;4.15;;;;;;;16.51;89.38;101544.94;7550285;23;20160;-87
2022/08/08 07:58:28;;;;;;;6.35;4.50;;;;;;;16.57;89.18;101548.78;7529063;23;20085;-87
2022/08/08 08:01:35;;;;;;;6.00;4.40;;;;;;;16.65;87.09;101548.13;7540482;23;20030;-87
2022/08/08 08:05:01;;;;;;;6.35;4.22;;;;;;;16.82;86.71;101549.25;7674493;23;20103;-87
2022/08/08 08:08:17;;;;;;;6.82;4.57;;;;;;;16.91;86.56;101557.13;7650840;23;20028;-87
2022/08/08 08:11:22;;;;;;;6.45;4.75;;;;;;;16.95;85.44;101549.84;7648468;23;20402;-87
2022/08/08 08:14:53;;;;;;;7.22;4.35;;;;;;;17.10;83.55;101550.25;7701294;23;20473;-87
2022/08/08 08:18:01;;;;;;;6.18;4.53;;;;;;;17.24;82.22;101552.41;7676447;23;20020;-87
2022/08/08 08:21:07;;;;;;;6.10;4.38;;;;;;;17.30;81.27;101551.88;7649463;23;20028;-87
2022/08/08 08:24:20;;;;;;;5.97;4.50;;;;;;;17.42;81.86;101553.38;7631233;23;20044;-87
2022/08/08 08:27:32;;;;;;;5.53;4.53;;;;;;;17.55;82.51;101555.69;7676795;23;20509;-87
2022/08/08 08:30:35;;;;;;;5.95;4.60;;;;;;;17.61;80.83;101543.81;7702280;23;20025;-87
2022/08/08 08:33:37;;;;;;;6.20;3.88;;;;;;;17.70;78.74;101547.38;7702360;23;20023;-87
2022/08/08 08:36:44;;;;;;;6.68;4.28;;;;;;;17.78;78.48;101555.34;7676257;23;20020;-87
2022/08/08 08:39:56;;;;;;;6.15;4.00;;;;;;;17.91;78.51;101547.19;7676263;23;20103;-87
2022/08/08 08:43:08;;;;;;;5.55;3.92;;;;;;;18.00;77.53;101544.53;7677013;23;20024;-87
2022/08/08 08:46:21;;;;;;;4.57;3.92;;;;;;;18.13;75.08;101554.69;7651241;23;20033;-87
2022/08/08 08:49:27;;;;;;;4.70;3.75;;;;;;;18.22;74.82;101548.56;7674684;23;20029;-87
2022/08/08 08:52:41;;;;;;;4.63;3.47;;;;;;;18.35;75.36;101552.63;7654366;23;20050;-87
2022/08/08 08:56:02;;;;;;;4.13;3.38;;;;;;;18.49;72.48;101558.22;7676127;23;20466;-87
2022/08/08 08:59:10;;;;;;;5.57;3.33;;;;;;;18.66;71.51;101553.16;7653175;23;20032;-87
2022/08/08 09:02:29;;;;;;;4.90;3.33;;;;;;;18.79;68.52;101556.25;7675853;23;20024;-87
2022/08/08 09:05:37;;;;;;;6.53;3.22;;;;;;;18.84;69.31;101550.56;7676452;23;20476;-87
2022/08/08 09:09:19;;;;;;;4.22;3.10;;;;;;;18.88;68.14;101551.88;7677606;23;20518;-87
2022/08/08 09:12:51;;;;;;;3.35;2.95;;;;;;;18.92;67.43;101554.06;7675924;23;20047;-87
2022/08/08 09:15:54;;;;;;;4.60;2.90;;;;;;;18.98;66.66;101544.78;7703757;23;20493;-87
2022/08/08 09:19:08;;;;;;;4.50;2.90;;;;;;;19.10;64.41;101550.59;7676838;23;20035;-87
2022/08/08 09:22:12;;;;;;;2.88;2.35;;;;;;;19.19;63.63;101549.69;7702259;23;20016;-87
2022/08/08 09:25:30;;;;;;;5.80;3.67;;;;;;;19.33;62.03;101556.22;7676452;23;20502;-87
2022/08/08 09:28:59;;;;;;;4.90;3.05;;;;;;;19.46;60.53;101551.38;7676358;23;20025;-87
2022/08/08 09:32:16;;;;;;;8.13;2.80;;;;;;;19.58;59.53;101554.56;7701654;23;20020;-88
2022/08/08 09:35:27;;;;;;;4.88;2.85;;;;;;;19.67;59.25;101553.66;7675518;23;20025;-87
2022/08/08 09:38:53;;;;;;;4.25;3.08;;;;;;;19.74;57.83;101548.59;7675346;23;20056;-88
2022/08/08 09:42:02;;;;;;;7.50;2.90;;;;;;;19.77;57.87;101553.53;7674777;23;20033;-87
2022/08/08 09:45:37;;;;;;;3.70;2.72;;;;;;;19.91;57.22;101552.13;7702961;23;20020;-88
2022/08/08 09:48:59;;;;;;;3.38;3.00;;;;;;;20.00;56.01;101540.69;7702458;23;20186;-88
2022/08/08 09:52:25;;;;;;;3.47;2.78;;;;;;;20.08;55.40;101543.34;7701638;23;20012;-88
2022/08/08 09:55:47;;;;;;;2.97;2.25;;;;;;;20.17;54.81;101541.56;7675125;23;20119;-88
2022/08/08 09:59:11;;;;;;;5.22;2.90;;;;;;;20.35;53.95;101544.09;7702979;23;20087;-88
2022/08/08 10:02:37;;;;;;;3.50;2.60;;;;;;;20.56;53.17;101538.41;7702299;23;20016;-88
2022/08/08 10:05:41;;;;;;;4.97;3.28;;;;;;;20.67;52.65;101527.59;7701600;23;20020;-88
2022/08/08 10:08:49;;;;;;;7.40;3.03;;;;;;;20.83;52.13;101539.91;7702758;23;20017;-88
2022/08/08 10:11:52;;;;;;;5.50;3.28;;;;;;;20.97;50.94;101538.47;7702812;23;20024;-88
2022/08/08 10:15:13;;;;;;;5.18;2.90;;;;;;;21.06;50.50;101534.81;7702379;23;20350;-88
2022/08/08 10:18:23;;;;;;;3.95;2.65;;;;;;;21.11;49.53;101526.44;7703021;23;20020;-88
2022/08/08 10:21:30;;;;;;;3.95;2.90;;;;;;;21.27;50.37;101535.13;7701814;23;20172;-88
2022/08/08 10:24:35;;;;;;;4.00;2.42;;;;;;;21.32;49.55;101529.38;7675473;23;20155;-88
2022/08/08 10:27:50;;;;;;;3.53;2.45;;;;;;;21.46;48.37;101522.59;7677038;23;20236;-88
2022/08/08 10:32:30;;;;;;;4.22;2.85;;;;;;;21.51;49.69;101520.28;7702372;23;20360;-89
2022/08/08 10:34:58;;;;;;;2.85;2.55;;;;;;;21.63;49.39;101526.03;7662871;23;20360;-88
2022/08/08 10:38:06;;;;;;;4.38;2.72;;;;;;;21.72;48.33;101514.47;7702418;23;20027;-88
2022/08/08 10:41:16;;;;;;;3.05;2.72;;;;;;;21.82;48.14;101516.91;7675337;23;20047;-88
2022/08/08 10:44:34;;;;;;;3.95;2.63;;;;;;;21.95;47.22;101522.44;7702245;23;20331;-88
2022/08/08 10:47:41;;;;;;;3.65;2.58;;;;;;;22.03;46.36;101525.03;7675143;23;20107;-88
2022/08/08 10:50:48;;;;;;;2.85;2.55;;;;;;;22.09;46.49;101518.28;7701344;23;20040;-89
2022/08/08 10:53:54;;;;;;;4.72;2.50;;;;;;;22.14;45.54;101522.03;7702616;23;20430;-88
2022/08/08 10:57:01;;;;;;;3.25;2.60;;;;;;;22.16;45.84;101519.22;7701977;23;20020;-88
2022/08/08 11:00:06;;;;;;;4.70;2.90;;;;;;;22.27;45.36;101520.69;7699637;23;20454;-88
2022/08/08 11:03:14;;;;;;;3.35;2.60;;;;;;;22.37;44.99;101510.72;7699604;23;20102;-88
2022/08/08 11:06:16;;;;;;;3.22;2.35;;;;;;;22.40;46.31;101515.63;7700967;23;20031;-89
2022/08/08 11:09:19;;;;;;;3.53;2.40;;;;;;;22.56;46.96;101512.09;7702184;23;20338;-89
2022/08/08 11:12:23;;;;;;;3.97;2.05;;;;;;;22.66;44.48;101511.81;7701582;23;20043;-89
2022/08/08 11:15:30;;;;;;;2.55;2.30;;;;;;;22.73;43.16;101510.97;7701896;23;20099;-89
2022/08/08 11:18:39;;;;;;;4.65;2.38;;;;;;;22.84;42.91;101509.72;7675244;23;20012;-89
2022/08/08 11:21:48;;;;;;;3.88;2.22;;;;;;;22.92;43.31;101517.56;7700998;23;20027;-89
2022/08/08 11:25:03;;;;;;;3.80;2.63;;;;;;;22.98;42.33;101521.34;7702377;23;20047;-88
2022/08/08 11:28:22;;;;;;;2.63;2.30;;;;;;;23.09;43.04;101510.34;7701164;23;20017;-89
2022/08/08 11:31:30;;;;;;;3.50;2.42;;;;;;;23.17;42.97;101518.19;7703361;23;20446;-89
2022/08/08 11:34:54;;;;;;;4.97;2.63;;;;;;;23.26;41.84;101518.13;7701935;23;20017;-89
2022/08/08 11:38:16;;;;;;;4.28;2.47;;;;;;;23.33;42.54;101513.75;7701868;23;20021;-89
2022/08/08 11:41:40;;;;;;;3.00;2.10;;;;;;;23.41;42.57;101517.13;7681137;23;20086;-89
2022/08/08 11:44:44;;;;;;;5.25;2.50;;;;;;;23.52;42.94;101509.75;7701819;23;20028;-89
2022/08/08 11:47:48;;;;;;;2.35;2.15;;;;;;;23.72;42.72;101502.06;7675111;23;20023;-89
2022/08/08 11:51:05;;;;;;;3.38;2.28;;;;;;;24.01;41.29;101499.41;7679104;23;20511;-89
2022/08/08 11:54:34;;;;;;;4.15;2.60;;;;;;;24.25;41.22;101492.97;7675224;23;20028;-89
2022/08/08 11:57:47;;;;;;;3.15;2.42;;;;;;;24.52;42.71;101501.22;7702206;23;20478;-89
2022/08/08 12:01:04;;;;;;;3.53;2.15;;;;;;;24.78;41.84;101494.50;7701887;23;20024;-89
2022/08/08 12:04:18;;;;;;;9.10;2.22;;;;;;;24.96;40.01;101486.06;7677437;23;20021;-89
2022/08/08 12:07:24;;;;;;;3.30;2.45;;;;;;;25.12;38.35;101491.09;7675400;23;20636;-90
2022/08/08 12:10:30;;;;;;;3.33;2.70;;;;;;;25.13;38.54;101492.72;7675006;23;20020;-90
2022/08/08 12:13:34;;;;;;;4.07;2.65;;;;;;;25.14;39.04;101494.34;7676197;23;20028;-90
2022/08/08 12:16:56;;;;;;;2.58;2.20;;;;;;;25.23;38.40;101503.00;7703285;23;20059;-89
2022/08/08 12:19:58;;;;;;;3.80;2.55;;;;;;;25.08;39.70;101498.59;7675398;23;20027;-90
2022/08/08 12:23:00;;;;;;;3.38;2.35;;;;;;;25.33;40.20;101500.81;7704187;23;20020;-90
2022/08/08 12:26:08;;;;;;;3.50;2.65;;;;;;;25.53;37.48;101493.78;7702522;23;20020;-90
2022/08/08 12:29:22;;;;;;;4.97;2.67;;;;;;;25.78;40.37;101494.09;7704719;23;20020;-89
2022/08/08 12:32:45;;;;;;;3.92;2.30;;;;;;;26.10;39.31;101499.75;7702870;23;20063;-90
2022/08/08 12:35:48;;;;;;;4.10;2.28;;;;;;;26.42;38.95;101495.53;7703534;23;20040;-89
2022/08/08 12:38:53;;;;;;;2.58;2.10;;;;;;;26.45;36.06;101490.84;7703437;23;20052;-89
2022/08/08 12:41:57;;;;;;;2.75;2.00;;;;;;;26.50;35.99;101494.50;7704152;23;20443;-89
2022/08/08 12:45:08;;;;;;;3.28;2.22;;;;;;;26.47;35.92;101494.13;7704360;23;20414;-88
2022/08/08 12:48:30;;;;;;;3.33;2.15;;;;;;;26.58;36.02;101497.03;7682063;23;20371;-88
2022/08/08 12:51:43;;;;;;;3.05;2.75;;;;;;;26.77;36.72;101490.06;7700624;23;20430;-88
2022/08/08 12:55:09;;;;;;;5.80;2.42;;;;;;;27.07;36.24;101493.09;7676741;23;20046;-88
2022/08/08 12:58:50;;;;;;;7.18;2.40;;;;;;;27.16;34.67;101490.22;7703301;23;20482;-89
2022/08/08 13:02:00;;;;;;;2.75;2.30;;;;;;;27.27;35.76;101500.25;7703206;23;20028;-89
2022/08/08 13:05:05;;;;;;;3.80;2.40;;;;;;;27.44;35.99;101484.66;7703347;23;20029;-89
2022/08/08 13:08:41;;;;;;;2.97;2.30;;;;;;;27.65;35.36;101484.38;7701900;23;20020;-89
2022/08/08 13:11:54;;;;;;;3.40;2.38;;;;;;;27.82;34.47;101481.25;7702396;23;20507;-89
2022/08/08 13:15:19;;;;;;;2.42;2.22;;;;;;;27.92;34.40;101476.28;7704191;23;20024;-89
2022/08/08 13:18:21;;;;;;;4.53;2.40;;;;;;;27.96;33.08;101482.81;7702747;23;20016;-89
2022/08/08 13:21:29;;;;;;;2.72;2.50;;;;;;;27.78;33.74;101477.38;7703974;23;20454;-88
2022/08/08 13:24:51;;;;;;;2.55;2.20;;;;;;;27.74;33.83;101482.28;7700950;23;20510;-89
2022/08/08 13:27:54;;;;;;;2.65;2.45;;;;;;;27.95;34.24;101475.88;7702971;23;20026;-88
2022/08/08 13:31:02;;;;;;;3.28;2.70;;;;;;;28.33;34.16;101475.81;7703592;23;20040;-88
2022/08/08 13:34:05;;;;;;;2.90;2.60;;;;;;;28.69;33.59;101466.34;7702477;23;20025;-89
2022/08/08 13:37:14;;;;;;;3.33;2.35;;;;;;;29.21;33.57;101474.06;7703871;23;20020;-88
2022/08/08 13:40:36;;;;;;;2.45;2.17;;;;;;;29.51;31.08;101470.66;7702029;23;20023;-88
2022/08/08 13:43:46;;;;;;;2.40;2.20;;;;;;;29.61;32.54;101473.59;7702476;23;20347;-87
2022/08/08 13:47:00;;;;;;;2.53;2.20;;;;;;;29.89;32.16;101469.56;7675285;23;20087;-88
2022/08/08 13:50:08;;;;;;;2.60;2.40;;;;;;;29.89;30.88;101464.22;7703502;23;20040;-88
2022/08/08 13:53:31;;;;;;;3.10;2.17;;;;;;;29.66;31.75;101471.09;7703748;23;20028;-89
2022/08/08 13:56:37;;;;;;;2.70;2.47;;;;;;;29.74;31.83;101475.31;7700632;23;20447;-88
2022/08/08 14:00:06;;;;;;;4.18;2.38;;;;;;;29.46;31.68;101465.16;7698649;23;20088;-88
2022/08/08 14:03:12;;;;;;;3.22;2.35;;;;;;;28.38;32.51;101471.72;7700105;23;20091;-88
2022/08/08 14:06:44;;;;;;;4.68;2.28;;;;;;;27.91;34.34;101472.00;7699874;23;20017;-89
2022/08/08 14:09:46;;;;;;;2.65;2.00;;;;;;;28.00;36.12;101475.22;7700411;23;20024;-88
2022/08/08 14:13:14;;;;;;;3.00;2.55;;;;;;;28.47;33.47;101462.44;7700187;23;20021;-88
2022/08/08 14:16:34;;;;;;;4.28;2.70;;;;;;;29.09;34.02;101473.16;7699047;23;20032;-88
2022/08/08 14:19:42;;;;;;;3.22;2.35;;;;;;;29.42;31.79;101470.16;7701253;23;20099;-88
2022/08/08 14:23:07;;;;;;;3.38;2.30;;;;;;;29.49;32.57;101470.88;7654203;23;20028;-88
2022/08/08 14:26:30;;;;;;;3.42;2.50;;;;;;;29.42;31.93;101475.50;7701513;23;20024;-89
2022/08/08 14:29:34;;;;;;;3.08;2.00;;;;;;;29.40;32.15;101465.03;7702019;23;20091;-88
2022/08/08 14:32:52;;;;;;;2.65;2.45;;;;;;;29.48;31.37;101468.44;7701875;23;20021;-89
2022/08/08 14:36:03;;;;;;;2.78;2.33;;;;;;;29.40;32.15;101461.56;7675397;23;20020;-89
2022/08/08 14:39:06;;;;;;;3.28;2.45;;;;;;;29.67;32.45;101464.72;7701804;23;20035;-88
2022/08/08 14:42:12;;;;;;;2.97;1.95;;;;;;;29.92;31.66;101464.59;7677110;23;20047;-88
2022/08/08 14:45:19;;;;;;;3.97;2.35;;;;;;;30.36;30.75;101465.22;7653103;23;20021;-88
2022/08/08 14:48:45;;;;;;;2.53;2.33;;;;;;;30.45;30.64;101473.69;7701444;23;20036;-88
2022/08/08 14:52:07;;;;;;;2.78;1.88;;;;;;;30.63;31.72;101459.41;7674471;23;20025;-88
2022/08/08 14:55:09;;;;;;;;;;;;;;;31.14;31.17;101457.88;7702710;23;20439;-88
2022/08/08 14:58:11;;;;;;;2.45;2.10;;;;;;;31.41;29.75;101460.88;7645024;23;19924;-88
2022/08/08 15:01:24;;;;;;;2.78;2.50;;;;;;;31.66;30.01;101465.91;7697902;23;20351;-88
2022/08/08 15:04:38;;;;;;;3.28;2.30;;;;;;;31.84;29.63;101470.25;7672467;23;20024;-88
2022/08/08 15:07:41;;;;;;;3.50;2.08;;;;;;;31.48;28.73;101463.44;7675711;23;20156;-89
2022/08/08 15:10:54;;;;;;;2.50;2.30;;;;;;;31.08;28.98;101459.66;7677812;23;20023;-89
2022/08/08 15:13:56;;;;;;;2.78;2.08;;;;;;;30.39;30.82;101461.25;7701382;23;20025;-88
2022/08/08 15:17:04;;;;;;;3.28;2.58;;;;;;;29.61;31.16;101450.41;7702464;23;20021;-89
2022/08/08 15:20:10;;;;;;;4.25;2.42;;;;;;;28.95;33.49;101454.63;7672914;23;20041;-88